Ora Direzione Vento Velocita' Vento Media Vento Raffica Max. Temperatura Wind Chill Pioggia Pressione
22:49:10.00 °(N)2.8 Kts3.2 Kts13.0 Kts5.0 °C4.12 °C0.0 mm1005.4 Hpa
22:28:29.00 °(N)3.4 Kts3.2 Kts13.0 Kts5.0 °C3.74 °C0.0 mm1004.5 Hpa
22:07:44.00 °(N)0.0 Kts2.16 Kts13.0 Kts5.0 °C16.22 °C0.0 mm1005.4 Hpa
21:49:07.00 °(N)1.6 Kts1.76 Kts13.0 Kts5.0 °C5.15 °C0.0 mm1004.9 Hpa
21:28:24.00 °(N)2.3 Kts2.6 Kts13.0 Kts5.0 °C4.49 °C0.0 mm1004.1 Hpa
21:07:44.01 °(N)1.3 Kts3.13 Kts13.0 Kts5.0 °C5.62 °C0.0 mm1004.5 Hpa
20:49:10.00 °(N)3.4 Kts2.8 Kts13.0 Kts4.6 °C3.28 °C0.0 mm1005.4 Hpa
20:28:25.00 °(N)3.0 Kts3.1 Kts13.0 Kts4.5 °C3.45 °C0.0 mm1006.3 Hpa
20:07:41.00 °(N)1.2 Kts1.9 Kts13.0 Kts4.5 °C5.18 °C0.0 mm1005.4 Hpa
19:49:05.00 °(N)2.2 Kts2.36 Kts13.0 Kts4.5 °C4.03 °C0.0 mm1004.1 Hpa
19:28:25.00 °(N)3.2 Kts3.5 Kts13.0 Kts4.9 °C3.72 °C0.0 mm1002.8 Hpa
19:07:42.00 °(N)3.1 Kts3.1 Kts13.0 Kts5.3 °C4.36 °C0.0 mm1005.0 Hpa
18:49:07.00 °(N)6.9 Kts4.06 Kts13.0 Kts5.4 °C2.72 °C0.0 mm1005.4 Hpa
18:28:21.013 °(NNE)4.1 Kts4.9 Kts13.0 Kts5.5 °C3.95 °C0.0 mm1004.1 Hpa
18:07:41.00 °(N)3.6 Kts4.16 Kts13.0 Kts5.5 °C4.23 °C0.0 mm1005.9 Hpa
17:49:00.00 °(N)5.0 Kts3.06 Kts13.0 Kts5.6 °C3.7 °C0.0 mm1006.8 Hpa
17:28:15.00 °(N)3.4 Kts4.33 Kts13.0 Kts5.8 °C4.66 °C0.0 mm1006.3 Hpa
17:07:27.00 °(N)0.7 Kts4.3 Kts13.0 Kts5.9 °C7.39 °C0.0 mm1005.9 Hpa
16:46:42.00 °(N)6.6 Kts6.56 Kts13.0 Kts6.0 °C3.45 °C0.0 mm1004.2 Hpa
16:28:02.00 °(N)8.6 Kts6.23 Kts13.0 Kts6.4 °C3.41 °C0.0 mm1005.5 Hpa